Weather at Bowers Field

Public forecast

Using degrees Fahrenheit for public forecast. Weather courtesy of forecast.io.

Current aviation weather report (METAR) for Bowers Field

Retrieved 2020/11/25 12:53 UTC (23 minutes ago):

KELN 251253Z AUTO 32007KT 10SM BKN110 00/M02 A2991 RMK AO2 SLP142 T00001022 TSNO

Closest aviation forecast (TAF) to Bowers Field

Closest forecast is Pangborn Memorial Airport, 25.6 nm (47.5 km) NNE. Retrieved 2020/11/25 12:33 UTC (43 minutes ago):

TAF KEAT 251129Z 2512/2612 30008KT P6SM BKN070 OVC200 FM251600 30004KT P6SM VCSH OVC060 FM252100 30004KT P6SM FEW070 FM261000 VRB02KT 6SM BR FEW005